Time;durP1;ratioP1;P1;durP2;ratioP2;P2;SDS_P1;SDS_P2;PMS_P1;PMS_P2;Temp;Humidity;BMP_temperature;BMP_pressure;BME280_temperature;BME280_humidity;BME280_pressure;Samples;Min_cycle;Max_cycle;Signal;HPM_P1;HPM_P2
2021/10/07 00:01:21;;;;;;;23.17;13.53;;;9.60;99.90;;;;;;5051692;28;20488;-76
2021/10/07 00:03:48;;;;;;;22.93;14.20;;;9.60;99.90;;;;;;5051419;28;20970;-76
2021/10/07 00:06:14;;;;;;;25.70;15.20;;;9.50;99.90;;;;;;5051725;28;20939;-76
2021/10/07 00:08:41;;;;;;;27.20;14.80;;;9.50;99.90;;;;;;5051753;28;20530;-76
2021/10/07 00:11:11;;;;;;;22.30;13.23;;;9.50;99.90;;;;;;5055675;28;20575;-76
2021/10/07 00:13:38;;;;;;;24.87;15.70;;;9.60;99.90;;;;;;5055665;28;20448;-76
2021/10/07 00:16:06;;;;;;;18.93;13.00;;;9.60;99.90;;;;;;5055354;28;20878;-75
2021/10/07 00:18:37;;;;;;;23.30;11.93;;;9.50;99.90;;;;;;5056036;28;20510;-76
2021/10/07 00:21:04;;;;;;;20.67;13.03;;;9.60;99.90;;;;;;5055642;28;20455;-75
2021/10/07 00:23:33;;;;;;;19.00;12.93;;;9.60;99.90;;;;;;5055562;28;20877;-75
2021/10/07 00:25:59;;;;;;;24.60;13.77;;;9.60;99.90;;;;;;5055199;28;20862;-76
2021/10/07 00:28:30;;;;;;;22.00;14.10;;;9.60;99.90;;;;;;5055519;28;20575;-76
2021/10/07 00:30:58;;;;;;;19.53;12.50;;;9.50;99.90;;;;;;5054789;28;21085;-75
2021/10/07 00:33:30;;;;;;;20.53;13.17;;;9.50;99.90;;;;;;5055449;28;20540;-75
2021/10/07 00:36:11;;;;;;;18.37;11.87;;;9.50;99.90;;;;;;5054738;28;20452;-76
2021/10/07 00:41:26;;;;;;;26.37;12.70;;;9.60;99.90;;;;;;5054927;28;20471;-75
2021/10/07 00:43:52;;;;;;;20.63;12.23;;;9.60;99.90;;;;;;5054857;28;20531;-75
2021/10/07 00:46:19;;;;;;;19.87;12.67;;;9.50;99.90;;;;;;5039816;28;20535;-75
2021/10/07 00:48:47;;;;;;;20.67;11.90;;;9.60;99.90;;;;;;5054895;28;20867;-76
2021/10/07 00:51:13;;;;;;;18.10;12.87;;;9.60;99.90;;;;;;5054319;28;20570;-76
2021/10/07 00:53:40;;;;;;;24.07;14.07;;;9.50;99.90;;;;;;5054291;28;20536;-76
2021/10/07 00:56:07;;;;;;;22.17;13.87;;;9.50;99.90;;;;;;5054836;28;20472;-76
2021/10/07 00:58:33;;;;;;;27.73;14.67;;;9.40;99.90;;;;;;5054509;28;20487;-76
2021/10/07 01:01:00;;;;;;;21.03;12.23;;;9.40;99.90;;;;;;5054874;28;20535;-76
2021/10/07 01:03:28;;;;;;;20.73;12.50;;;9.30;99.90;;;;;;5054310;28;20502;-75
2021/10/07 01:05:56;;;;;;;24.00;13.93;;;9.30;99.90;;;;;;5054186;28;20486;-77
2021/10/07 01:08:23;;;;;;;24.10;15.60;;;9.30;99.90;;;;;;5054673;28;20455;-76
2021/10/07 01:10:49;;;;;;;22.03;14.33;;;9.30;99.90;;;;;;5054935;28;20566;-75
2021/10/07 01:13:16;;;;;;;23.90;14.10;;;9.20;99.90;;;;;;5054502;28;20445;-76
2021/10/07 01:15:43;;;;;;;22.10;14.03;;;9.20;99.90;;;;;;5054409;28;20808;-75
2021/10/07 01:18:09;;;;;;;24.43;14.57;;;9.20;99.90;;;;;;5054244;28;20453;-75
2021/10/07 01:20:37;;;;;;;18.77;12.93;;;9.10;99.90;;;;;;5054075;28;20535;-76
2021/10/07 01:23:04;;;;;;;26.60;14.67;;;9.10;99.90;;;;;;5054269;28;20452;-75
2021/10/07 01:25:33;;;;;;;23.17;15.83;;;9.10;99.90;;;;;;5054470;28;20472;-76
2021/10/07 01:27:59;;;;;;;22.80;15.00;;;9.00;99.90;;;;;;5054177;28;20456;-75
2021/10/07 01:30:26;;;;;;;24.23;13.63;;;9.00;99.90;;;;;;5054100;28;20519;-76
2021/10/07 01:32:56;;;;;;;18.50;13.90;;;9.00;99.90;;;;;;5054257;28;20472;-75
2021/10/07 01:35:23;;;;;;;21.37;14.37;;;9.00;99.90;;;;;;5054281;28;20445;-76
2021/10/07 01:37:51;;;;;;;21.80;13.70;;;9.00;99.90;;;;;;5054127;28;20487;-76
2021/10/07 01:40:18;;;;;;;20.00;14.10;;;9.00;99.90;;;;;;5053965;28;20456;-76
2021/10/07 01:42:45;;;;;;;17.63;12.93;;;8.90;99.90;;;;;;5054250;28;20559;-75
2021/10/07 01:45:13;;;;;;;19.40;13.70;;;8.90;99.90;;;;;;5053729;28;20480;-76
2021/10/07 01:47:40;;;;;;;15.77;12.33;;;8.90;99.90;;;;;;5053937;28;20539;-76
2021/10/07 01:50:09;;;;;;;18.00;12.73;;;8.90;99.90;;;;;;5053699;28;20495;-75
2021/10/07 01:52:36;;;;;;;19.50;12.83;;;8.90;99.90;;;;;;5053959;28;20532;-76
2021/10/07 01:55:05;;;;;;;16.10;12.17;;;8.80;99.90;;;;;;5053709;28;20494;-75
2021/10/07 01:57:32;;;;;;;15.37;11.47;;;8.80;99.90;;;;;;5053659;28;20515;-76
2021/10/07 01:59:58;;;;;;;22.30;12.80;;;8.80;99.90;;;;;;5053716;28;20476;-75
2021/10/07 02:02:25;;;;;;;16.73;11.83;;;8.80;99.90;;;;;;5053815;28;20536;-76
2021/10/07 02:04:51;;;;;;;16.30;11.60;;;8.70;99.90;;;;;;5053744;28;20536;-76
2021/10/07 02:07:20;;;;;;;17.40;11.40;;;8.80;99.90;;;;;;5053517;28;20444;-75
2021/10/07 02:09:47;;;;;;;16.67;11.30;;;8.70;99.90;;;;;;5053201;28;20446;-76
2021/10/07 02:12:15;;;;;;;16.13;11.20;;;8.70;99.90;;;;;;5053365;28;20484;-81
2021/10/07 02:14:41;;;;;;;14.27;10.53;;;8.70;99.90;;;;;;5053614;28;20484;-77
2021/10/07 02:17:08;;;;;;;15.90;11.17;;;8.60;99.90;;;;;;5053368;28;20555;-76
2021/10/07 02:19:34;;;;;;;11.77;10.00;;;8.60;99.90;;;;;;5053430;28;20887;-76
2021/10/07 02:22:03;;;;;;;15.73;10.70;;;8.60;99.90;;;;;;5053192;28;20448;-76
2021/10/07 02:24:30;;;;;;;20.63;11.40;;;8.60;99.90;;;;;;5053191;28;20951;-76
2021/10/07 02:26:56;;;;;;;10.87;9.00;;;8.60;99.90;;;;;;5053168;28;20531;-76
2021/10/07 02:29:24;;;;;;;15.87;9.73;;;8.60;99.90;;;;;;5053143;28;20479;-76
2021/10/07 02:31:50;;;;;;;9.70;8.30;;;8.60;99.90;;;;;;5052765;28;20507;-76
2021/10/07 02:34:17;;;;;;;12.17;10.83;;;8.60;99.90;;;;;;5052012;28;20448;-76
2021/10/07 02:36:43;;;;;;;12.90;10.00;;;8.50;99.90;;;;;;5053519;28;20479;-76
2021/10/07 02:39:10;;;;;;;11.50;9.50;;;8.50;99.90;;;;;;5053029;28;20448;-77
2021/10/07 02:41:37;;;;;;;12.50;10.30;;;8.50;99.90;;;;;;5052579;28;20531;-76
2021/10/07 02:44:03;;;;;;;11.30;9.53;;;8.50;99.90;;;;;;5052873;28;20710;-76
2021/10/07 02:46:31;;;;;;;13.03;10.87;;;8.50;99.90;;;;;;5052718;28;21003;-76
2021/10/07 02:48:58;;;;;;;17.87;9.73;;;8.50;99.90;;;;;;5052869;28;20472;-76
2021/10/07 02:51:25;;;;;;;11.33;9.77;;;8.40;99.90;;;;;;5052560;28;20571;-76
2021/10/07 02:53:51;;;;;;;16.30;10.43;;;8.40;99.90;;;;;;5052602;28;20471;-76
2021/10/07 02:56:18;;;;;;;13.13;10.27;;;8.40;99.90;;;;;;5052740;28;20483;-76
2021/10/07 02:58:44;;;;;;;15.67;12.47;;;8.40;99.90;;;;;;5050538;28;21002;-76
2021/10/07 03:01:11;;;;;;;18.90;12.20;;;8.40;99.90;;;;;;5044452;28;20485;-76
2021/10/07 03:03:38;;;;;;;17.27;12.63;;;8.40;99.90;;;;;;5052605;28;20547;-76
2021/10/07 03:06:05;;;;;;;21.37;14.87;;;8.40;99.90;;;;;;5052349;28;20895;-76
2021/10/07 03:08:31;;;;;;;21.83;15.73;;;8.40;99.90;;;;;;5052289;28;20480;-76
2021/10/07 03:10:59;;;;;;;19.27;14.93;;;8.40;99.90;;;;;;5052425;28;20504;-76
2021/10/07 03:13:25;;;;;;;24.67;16.13;;;8.40;99.90;;;;;;5052418;28;20535;-76
2021/10/07 03:15:52;;;;;;;24.67;15.60;;;8.30;99.90;;;;;;5052157;28;20484;-76
2021/10/07 03:18:19;;;;;;;24.60;16.23;;;8.30;99.90;;;;;;5052302;28;20555;-76
2021/10/07 03:20:46;;;;;;;21.20;15.40;;;8.30;99.90;;;;;;5052231;28;20861;-76
2021/10/07 03:23:13;;;;;;;22.13;16.10;;;8.30;99.90;;;;;;5051332;28;20873;-76
2021/10/07 03:25:40;;;;;;;27.73;17.20;;;8.30;99.90;;;;;;5052116;28;20483;-77
2021/10/07 03:28:06;;;;;;;23.37;17.13;;;8.30;99.90;;;;;;5052207;28;20502;-76
2021/10/07 03:30:33;;;;;;;21.80;15.70;;;8.20;99.90;;;;;;5052031;28;20536;-77
2021/10/07 03:33:04;;;;;;;19.67;15.30;;;8.20;99.90;;;;;;5052078;28;20468;-77
2021/10/07 03:35:31;;;;;;;19.67;14.57;;;8.20;99.90;;;;;;5051839;28;20475;-76
2021/10/07 03:37:59;;;;;;;18.00;13.97;;;8.10;99.90;;;;;;5052143;28;20793;-76
2021/10/07 03:40:26;;;;;;;22.90;15.60;;;8.20;99.90;;;;;;5051948;28;20940;-76
2021/10/07 03:42:52;;;;;;;19.93;14.83;;;8.10;99.90;;;;;;5052083;28;20534;-76
2021/10/07 03:45:19;;;;;;;22.47;15.93;;;8.10;99.90;;;;;;5051614;28;20535;-76
2021/10/07 03:47:45;;;;;;;18.87;14.47;;;8.10;99.90;;;;;;5051759;28;21029;-78
2021/10/07 03:50:12;;;;;;;19.50;13.50;;;8.10;99.90;;;;;;5051685;28;20528;-77
2021/10/07 03:52:38;;;;;;;23.73;13.07;;;8.10;99.90;;;;;;5051946;28;20555;-77
2021/10/07 03:55:07;;;;;;;22.40;15.90;;;8.10;99.90;;;;;;5051837;28;20440;-77
2021/10/07 03:57:34;;;;;;;19.20;14.30;;;8.20;99.90;;;;;;5051764;28;20583;-76
2021/10/07 04:00:01;;;;;;;17.70;13.10;;;8.10;99.90;;;;;;5051738;28;20484;-77
2021/10/07 04:02:27;;;;;;;21.53;15.33;;;8.20;99.90;;;;;;5051708;28;20484;-77
2021/10/07 04:04:54;;;;;;;20.03;14.80;;;8.20;99.90;;;;;;5051723;28;20506;-76
2021/10/07 04:07:23;;;;;;;21.23;13.73;;;8.20;99.90;;;;;;5051811;28;20484;-77
2021/10/07 04:09:49;;;;;;;18.80;15.37;;;8.30;99.90;;;;;;5048726;28;20559;-77
2021/10/07 04:12:17;;;;;;;18.30;14.70;;;8.20;99.90;;;;;;5051687;28;21074;-77
2021/10/07 04:14:44;;;;;;;18.77;13.63;;;8.20;99.90;;;;;;5051856;28;20543;-77
2021/10/07 04:17:10;;;;;;;21.20;14.60;;;8.20;99.90;;;;;;5051523;28;20440;-77
2021/10/07 04:19:37;;;;;;;19.60;14.20;;;8.20;99.90;;;;;;5051897;28;20444;-76
2021/10/07 04:22:04;;;;;;;18.33;14.00;;;8.10;99.90;;;;;;5051362;28;20528;-76
2021/10/07 04:24:30;;;;;;;21.80;14.40;;;8.10;99.90;;;;;;5051933;28;20472;-76
2021/10/07 04:26:57;;;;;;;22.17;14.80;;;8.10;99.90;;;;;;5051696;28;20478;-76
2021/10/07 04:29:25;;;;;;;20.43;12.60;;;8.00;99.90;;;;;;5051499;28;20480;-76
2021/10/07 04:31:51;;;;;;;19.53;13.50;;;8.00;99.90;;;;;;5051271;28;20515;-77
2021/10/07 04:34:18;;;;;;;20.43;12.90;;;8.00;99.90;;;;;;5051367;28;20900;-77
2021/10/07 04:36:44;;;;;;;20.83;13.30;;;8.00;99.90;;;;;;5051768;28;20498;-76
2021/10/07 04:39:11;;;;;;;15.90;13.30;;;8.00;99.90;;;;;;5051527;28;20449;-76
2021/10/07 04:41:38;;;;;;;14.63;12.00;;;8.00;99.90;;;;;;5051249;28;21026;-76
2021/10/07 04:44:05;;;;;;;15.13;11.77;;;8.10;99.90;;;;;;5051239;28;20476;-78
2021/10/07 04:46:33;;;;;;;15.53;10.77;;;8.10;99.90;;;;;;5051721;28;20859;-77
2021/10/07 04:48:59;;;;;;;12.20;10.40;;;8.00;99.90;;;;;;5051252;28;20539;-76
2021/10/07 04:51:26;;;;;;;13.57;11.80;;;8.00;99.90;;;;;;5051220;28;20508;-77
2021/10/07 04:53:52;;;;;;;17.73;12.77;;;8.00;99.90;;;;;;5051459;28;20856;-77
2021/10/07 04:56:19;;;;;;;19.23;11.70;;;8.00;99.90;;;;;;5043762;28;20452;-76
2021/10/07 04:58:45;;;;;;;14.93;10.23;;;7.90;99.90;;;;;;5053287;28;20486;-77
2021/10/07 05:01:16;;;;;;;16.33;11.30;;;7.90;99.90;;;;;;5054507;28;20812;-76
2021/10/07 05:03:43;;;;;;;14.23;10.57;;;7.80;99.90;;;;;;5053718;28;20872;-76
2021/10/07 05:06:10;;;;;;;15.13;10.70;;;7.80;99.90;;;;;;5055115;28;20498;-77
2021/10/07 05:08:37;;;;;;;16.13;10.13;;;7.80;99.90;;;;;;5047636;28;20484;-77
2021/10/07 05:11:05;;;;;;;15.17;11.87;;;7.80;99.90;;;;;;5053410;28;20495;-76
2021/10/07 05:13:31;;;;;;;19.27;11.40;;;7.80;99.90;;;;;;5047900;28;20456;-77
2021/10/07 05:15:58;;;;;;;16.03;11.97;;;7.80;99.90;;;;;;5053757;28;20531;-77
2021/10/07 05:18:25;;;;;;;17.10;12.47;;;7.90;99.90;;;;;;5051705;28;20488;-76
2021/10/07 05:20:53;;;;;;;19.90;12.50;;;7.90;99.90;;;;;;5054389;28;20472;-76
2021/10/07 05:23:20;;;;;;;16.00;12.07;;;7.90;99.90;;;;;;5053937;28;20487;-76
2021/10/07 05:25:47;;;;;;;21.80;13.50;;;7.90;99.90;;;;;;5054554;28;20843;-77
2021/10/07 05:28:14;;;;;;;20.80;13.10;;;7.90;99.90;;;;;;5053992;28;20441;-77
2021/10/07 05:30:41;;;;;;;16.00;11.93;;;8.00;99.90;;;;;;5054415;28;20483;-77
2021/10/07 05:33:07;;;;;;;23.70;13.37;;;8.00;99.90;;;;;;5054029;28;20571;-76
2021/10/07 05:35:34;;;;;;;18.47;11.80;;;8.00;99.90;;;;;;5049018;28;20535;-76
2021/10/07 05:38:02;;;;;;;17.83;12.40;;;8.00;99.90;;;;;;5053707;28;20490;-77
2021/10/07 05:40:28;;;;;;;16.77;12.60;;;8.10;99.90;;;;;;5054436;28;20448;-76
2021/10/07 05:42:55;;;;;;;20.57;12.47;;;8.10;99.90;;;;;;5054266;28;20544;-76
2021/10/07 05:45:21;;;;;;;17.60;12.90;;;8.00;99.90;;;;;;5054326;28;20511;-77
2021/10/07 05:47:48;;;;;;;16.73;11.80;;;8.10;99.90;;;;;;5054121;28;20480;-76
2021/10/07 05:50:14;;;;;;;15.00;9.40;;;8.10;99.90;;;;;;5054468;28;20543;-76
2021/10/07 05:52:41;;;;;;;13.70;10.50;;;8.10;99.90;;;;;;5054108;28;20949;-76
2021/10/07 05:55:09;;;;;;;19.20;10.03;;;8.10;99.90;;;;;;5054248;28;20518;-77
2021/10/07 05:57:36;;;;;;;16.37;11.10;;;8.10;99.90;;;;;;5054217;28;20449;-77
2021/10/07 06:00:05;;;;;;;15.67;11.03;;;8.10;99.90;;;;;;5054198;28;20509;-77
2021/10/07 06:02:31;;;;;;;13.90;11.30;;;8.20;99.90;;;;;;5053017;28;20480;-76
2021/10/07 06:04:58;;;;;;;14.87;11.60;;;8.30;99.90;;;;;;5053960;28;20473;-76
2021/10/07 06:07:24;;;;;;;16.13;11.00;;;8.30;99.90;;;;;;5053429;28;20873;-76
2021/10/07 06:09:51;;;;;;;22.93;11.43;;;8.40;99.90;;;;;;5052925;28;20543;-77
2021/10/07 06:12:19;;;;;;;20.13;12.33;;;8.40;99.90;;;;;;5053980;28;20520;-77
2021/10/07 06:14:48;;;;;;;17.70;11.40;;;8.50;99.90;;;;;;5053835;28;20491;-76
2021/10/07 06:17:15;;;;;;;20.17;13.47;;;8.60;99.90;;;;;;5053755;28;20475;-75
2021/10/07 06:19:45;;;;;;;20.43;13.27;;;8.80;99.90;;;;;;5053733;28;20900;-76
2021/10/07 06:22:11;;;;;;;19.20;11.90;;;9.00;99.90;;;;;;5037370;28;20441;-76
2021/10/07 06:24:38;;;;;;;22.23;13.20;;;9.10;99.90;;;;;;5053923;28;20472;-76
2021/10/07 06:27:05;;;;;;;20.30;13.23;;;9.30;99.90;;;;;;5053806;28;20943;-76
2021/10/07 06:29:33;;;;;;;24.77;14.37;;;9.50;99.90;;;;;;5053568;28;20947;-76
2021/10/07 06:31:59;;;;;;;26.63;15.37;;;9.60;99.90;;;;;;5053308;28;21033;-75
2021/10/07 06:34:26;;;;;;;19.50;11.50;;;9.80;99.90;;;;;;5053575;28;20540;-75
2021/10/07 06:36:52;;;;;;;21.77;13.47;;;9.90;99.90;;;;;;5053407;28;20479;-76
2021/10/07 06:39:19;;;;;;;24.50;13.00;;;10.00;99.90;;;;;;5053381;28;20567;-76
2021/10/07 06:41:46;;;;;;;22.53;12.70;;;10.20;99.90;;;;;;5053098;28;20912;-75
2021/10/07 06:44:12;;;;;;;22.60;13.53;;;10.40;99.90;;;;;;5037265;28;20531;-75
2021/10/07 06:46:40;;;;;;;23.90;13.20;;;10.50;99.90;;;;;;5053302;28;20535;-75
2021/10/07 06:49:07;;;;;;;26.43;13.70;;;10.60;99.90;;;;;;5053225;28;20544;-75
2021/10/07 06:51:33;;;;;;;21.47;12.63;;;10.80;99.90;;;;;;5052988;28;20893;-75
2021/10/07 06:54:01;;;;;;;17.00;11.40;;;10.90;99.90;;;;;;5053210;28;20867;-76
2021/10/07 06:56:28;;;;;;;20.00;11.50;;;11.00;99.90;;;;;;5053330;28;20535;-75
2021/10/07 06:58:55;;;;;;;16.97;10.50;;;11.10;99.90;;;;;;5052971;28;21038;-75
2021/10/07 07:01:22;;;;;;;16.93;10.70;;;11.20;99.90;;;;;;5052976;28;20479;-75
2021/10/07 07:03:52;;;;;;;16.20;9.77;;;11.30;99.90;;;;;;5052748;28;21066;-76
2021/10/07 07:06:19;;;;;;;12.30;9.60;;;11.40;99.90;;;;;;5053232;28;20451;-76
2021/10/07 07:08:46;;;;;;;15.40;9.83;;;11.50;99.90;;;;;;5053028;28;20471;-76
2021/10/07 07:11:12;;;;;;;10.07;8.60;;;11.60;99.90;;;;;;5053011;28;20487;-75
2021/10/07 07:13:39;;;;;;;14.13;9.57;;;11.60;99.90;;;;;;5052483;28;20480;-75
2021/10/07 07:16:06;;;;;;;14.70;9.97;;;11.80;99.90;;;;;;5052314;28;20527;-76
2021/10/07 07:18:33;;;;;;;10.13;8.13;;;11.80;99.90;;;;;;5051522;28;20663;-76
2021/10/07 07:21:01;;;;;;;13.33;8.73;;;11.80;99.90;;;;;;5051714;28;20543;-76
2021/10/07 07:23:27;;;;;;;13.47;9.97;;;11.90;99.90;;;;;;5052703;28;20535;-76
2021/10/07 07:25:54;;;;;;;11.53;8.30;;;11.90;99.90;;;;;;5052387;28;20464;-76
2021/10/07 07:28:20;;;;;;;11.67;9.07;;;12.00;99.90;;;;;;5052721;28;20487;-76
2021/10/07 07:30:49;;;;;;;10.70;8.53;;;12.00;99.90;;;;;;5052614;28;20846;-76
2021/10/07 07:33:16;;;;;;;10.33;9.00;;;12.00;99.90;;;;;;5052419;28;20482;-76
2021/10/07 07:35:42;;;;;;;9.80;8.33;;;12.00;99.90;;;;;;5052313;28;20969;-76
2021/10/07 07:38:10;;;;;;;9.87;8.03;;;12.00;99.90;;;;;;5052403;28;20536;-76
2021/10/07 07:40:36;;;;;;;10.57;8.30;;;11.90;99.90;;;;;;5052394;28;20929;-76
2021/10/07 07:43:03;;;;;;;10.00;9.00;;;12.00;99.90;;;;;;5052447;28;20544;-75
2021/10/07 07:45:30;;;;;;;9.00;8.23;;;12.00;99.90;;;;;;5052304;28;20546;-76
2021/10/07 07:47:57;;;;;;;11.77;10.50;;;12.00;99.90;;;;;;5052350;28;20491;-76
2021/10/07 07:50:25;;;;;;;11.07;8.80;;;12.00;99.90;;;;;;5052413;28;20483;-76
2021/10/07 07:52:52;;;;;;;9.30;8.40;;;12.00;99.90;;;;;;5052323;28;20835;-76
2021/10/07 07:55:20;;;;;;;10.27;9.20;;;12.00;99.90;;;;;;5052292;28;20440;-76
2021/10/07 07:57:47;;;;;;;10.20;9.20;;;12.00;99.90;;;;;;5052119;28;20457;-76
2021/10/07 08:00:14;;;;;;;10.03;8.97;;;12.00;99.90;;;;;;5052096;28;20535;-76
2021/10/07 08:02:40;;;;;;;8.67;7.77;;;12.10;99.90;;;;;;5052361;28;20532;-76
2021/10/07 08:05:08;;;;;;;11.27;8.70;;;12.10;99.90;;;;;;5052302;28;20482;-76
2021/10/07 08:07:34;;;;;;;11.70;8.77;;;12.20;99.90;;;;;;5052142;28;20539;-76
2021/10/07 08:10:01;;;;;;;9.90;8.23;;;12.20;99.90;;;;;;5052306;28;20540;-76
2021/10/07 08:12:33;;;;;;;9.30;8.40;;;12.20;99.90;;;;;;5052084;28;20496;-76
2021/10/07 08:15:00;;;;;;;9.20;8.40;;;12.30;99.90;;;;;;5052106;28;20490;-76
2021/10/07 08:17:27;;;;;;;11.37;9.27;;;12.30;99.90;;;;;;5052051;28;20460;-76
2021/10/07 08:19:56;;;;;;;11.50;10.27;;;12.30;99.90;;;;;;5052130;28;20523;-76
2021/10/07 08:22:23;;;;;;;9.43;8.53;;;12.40;99.90;;;;;;5052257;28;20472;-75
2021/10/07 08:24:50;;;;;;;8.80;7.90;;;12.40;99.90;;;;;;5051890;28;20468;-76
2021/10/07 08:27:18;;;;;;;10.37;7.90;;;12.40;99.90;;;;;;5052111;28;20449;-75
2021/10/07 08:29:46;;;;;;;8.40;7.50;;;12.50;99.90;;;;;;5052136;28;20966;-78
2021/10/07 08:32:13;;;;;;;14.67;9.60;;;12.50;99.90;;;;;;5038475;28;20504;-78
2021/10/07 08:34:39;;;;;;;14.73;9.27;;;12.50;99.90;;;;;;5055669;28;21005;-78
2021/10/07 08:37:06;;;;;;;9.40;8.57;;;12.60;99.90;;;;;;5055816;28;20490;-78
2021/10/07 08:39:33;;;;;;;10.33;8.80;;;12.70;99.90;;;;;;5055644;28;20475;-78
2021/10/07 08:42:00;;;;;;;13.13;8.87;;;12.80;99.90;;;;;;5055129;28;20518;-78
2021/10/07 08:44:28;;;;;;;10.10;8.43;;;12.80;99.90;;;;;;5055713;28;20444;-78
2021/10/07 08:46:57;;;;;;;8.87;8.07;;;12.80;99.90;;;;;;5055693;28;20936;-78
2021/10/07 08:49:26;;;;;;;10.30;7.50;;;12.90;99.90;;;;;;5055322;28;20459;-78
2021/10/07 08:51:53;;;;;;;11.20;8.10;;;12.90;99.90;;;;;;5055513;28;20510;-78
2021/10/07 08:54:20;;;;;;;7.23;6.47;;;13.00;99.90;;;;;;5055412;28;20456;-78
2021/10/07 08:56:47;;;;;;;12.70;7.70;;;13.00;99.90;;;;;;5055772;28;20448;-78
2021/10/07 08:59:14;;;;;;;9.07;7.40;;;13.00;99.90;;;;;;5055490;28;20487;-79
2021/10/07 09:01:43;;;;;;;9.40;6.40;;;13.00;99.90;;;;;;5055112;28;20536;-78
2021/10/07 09:04:23;;;;;;;8.60;7.20;;;13.10;99.90;;;;;;5055184;28;20455;-78
2021/10/07 09:06:51;;;;;;;10.50;6.90;;;13.10;99.90;;;;;;5055126;28;20519;-78
2021/10/07 09:09:18;;;;;;;6.83;6.23;;;13.20;99.90;;;;;;5055277;28;20476;-79
2021/10/07 09:11:51;;;;;;;6.73;6.13;;;13.20;99.90;;;;;;5055080;28;20784;-79
2021/10/07 09:14:18;;;;;;;9.70;6.67;;;13.20;99.90;;;;;;5055081;28;20928;-79
2021/10/07 09:16:46;;;;;;;7.40;6.60;;;13.30;99.90;;;;;;5055267;28;20456;-79
2021/10/07 09:19:15;;;;;;;8.90;6.70;;;13.40;99.90;;;;;;5051768;28;21020;-79
2021/10/07 09:21:43;;;;;;;6.80;6.10;;;13.50;99.90;;;;;;5055169;28;20498;-79
2021/10/07 09:24:36;;;;;;;7.53;5.97;;;13.60;99.90;;;;;;5054895;28;20534;-79
2021/10/07 09:27:06;;;;;;;5.60;5.20;;;13.70;99.90;;;;;;5054823;28;20480;-79
2021/10/07 09:29:36;;;;;;;5.60;4.90;;;13.70;99.90;;;;;;5054803;28;20547;-79
2021/10/07 09:32:03;;;;;;;5.70;5.10;;;13.70;99.90;;;;;;5054585;28;20480;-79
2021/10/07 09:34:45;;;;;;;6.67;4.50;;;13.70;99.90;;;;;;5054768;28;20938;-78
2021/10/07 09:37:25;;;;;;;5.60;4.20;;;13.80;99.90;;;;;;5054712;28;20509;-79
2021/10/07 09:39:53;;;;;;;6.03;5.43;;;13.80;99.90;;;;;;5054486;28;20455;-79
2021/10/07 09:42:25;;;;;;;5.83;5.23;;;13.90;99.90;;;;;;5053899;28;21021;-77
2021/10/07 09:44:58;;;;;;;4.70;4.40;;;13.90;99.90;;;;;;5054689;28;20472;-77
2021/10/07 09:47:29;;;;;;;4.03;3.80;;;13.90;99.90;;;;;;5054351;28;20539;-79
2021/10/07 09:50:15;;;;;;;5.27;4.77;;;13.90;99.90;;;;;;5054371;28;20523;-77
2021/10/07 09:52:45;;;;;;;4.97;4.57;;;13.90;99.90;;;;;;5054287;28;20519;-78
2021/10/07 09:55:14;;;;;;;3.80;3.50;;;14.00;99.90;;;;;;5054449;28;20456;-77
2021/10/07 09:57:55;;;;;;;5.93;5.00;;;14.10;99.90;;;;;;5054413;28;20953;-78
2021/10/07 10:00:25;;;;;;;8.43;4.33;;;14.10;99.90;;;;;;5039395;28;20527;-78
2021/10/07 10:02:53;;;;;;;4.20;3.43;;;14.10;99.90;;;;;;5043549;28;20463;-78
2021/10/07 10:05:19;;;;;;;6.23;5.73;;;14.10;99.90;;;;;;5053373;28;20547;-78
2021/10/07 10:07:47;;;;;;;5.77;3.97;;;14.10;99.90;;;;;;5052858;28;20548;-79
2021/10/07 10:10:14;;;;;;;3.10;2.90;;;14.20;99.90;;;;;;5053675;28;20484;-78
2021/10/07 10:12:41;;;;;;;4.67;3.50;;;14.20;99.90;;;;;;5053554;28;20562;-78
2021/10/07 10:15:10;;;;;;;3.43;2.67;;;14.30;99.90;;;;;;5053638;28;20531;-78
2021/10/07 10:17:37;;;;;;;2.60;2.43;;;14.30;99.90;;;;;;5052780;28;20855;-78
2021/10/07 10:20:08;;;;;;;3.70;2.77;;;14.30;99.90;;;;;;5053554;28;20494;-78
2021/10/07 10:22:35;;;;;;;3.67;2.30;;;14.40;99.90;;;;;;5053595;28;20539;-77
2021/10/07 10:25:04;;;;;;;7.53;6.73;;;14.40;99.90;;;;;;5053132;28;21002;-78
2021/10/07 10:27:47;;;;;;;4.10;3.80;;;14.50;99.90;;;;;;5053225;28;20448;-78
2021/10/07 10:30:23;;;;;;;3.43;3.03;;;14.50;99.90;;;;;;5052334;28;20444;-78
2021/10/07 10:32:50;;;;;;;3.97;2.17;;;14.60;99.90;;;;;;5053432;28;20858;-79
2021/10/07 10:35:30;;;;;;;4.43;2.30;;;14.60;99.90;;;;;;5053398;28;20491;-79
2021/10/07 10:37:58;;;;;;;3.10;2.13;;;14.60;99.90;;;;;;5053126;28;20527;-78
2021/10/07 10:40:26;;;;;;;3.50;2.60;;;14.70;99.90;;;;;;5053074;28;20480;-79
2021/10/07 10:43:30;;;;;;;5.43;3.10;;;14.70;99.90;;;;;;5052815;28;20484;-78
2021/10/07 10:46:16;;;;;;;2.83;1.90;;;15.00;99.90;;;;;;5043317;28;20883;-79
2021/10/07 10:48:59;;;;;;;3.17;2.33;;;15.10;99.90;;;;;;5050875;28;20497;-78
2021/10/07 10:51:35;;;;;;;2.13;1.83;;;15.10;99.90;;;;;;5052840;28;20480;-78
2021/10/07 10:54:12;;;;;;;3.03;2.53;;;15.00;99.90;;;;;;5051951;28;20502;-78
2021/10/07 10:56:43;;;;;;;9.83;2.73;;;15.00;99.90;;;;;;5052758;28;20440;-78
2021/10/07 10:59:19;;;;;;;4.30;2.10;;;15.10;99.90;;;;;;5047111;28;20524;-79
2021/10/07 11:02:06;;;;;;;3.57;2.20;;;15.20;99.90;;;;;;5052715;28;20468;-79
2021/10/07 11:04:44;;;;;;;4.77;2.43;;;15.40;99.90;;;;;;5039360;28;20487;-78
2021/10/07 11:07:18;;;;;;;3.57;2.50;;;15.40;99.90;;;;;;5052572;28;20814;-78
2021/10/07 11:10:01;;;;;;;3.17;2.27;;;15.40;99.90;;;;;;5052410;28;20451;-78
2021/10/07 11:12:33;;;;;;;6.40;3.13;;;15.40;99.90;;;;;;5052694;28;20562;-78
2021/10/07 11:15:00;;;;;;;2.73;1.87;;;15.40;99.90;;;;;;5052620;28;20476;-78
2021/10/07 11:17:31;;;;;;;3.67;2.43;;;15.40;99.90;;;;;;5052362;28;20498;-77
2021/10/07 11:19:59;;;;;;;4.23;2.20;;;15.30;99.90;;;;;;5052387;28;20449;-78
2021/10/07 11:22:29;;;;;;;3.27;1.70;;;15.30;99.90;;;;;;5052405;28;20483;-78
2021/10/07 11:24:57;;;;;;;2.50;2.30;;;15.30;99.90;;;;;;5052209;28;20932;-78
2021/10/07 11:27:32;;;;;;;6.07;2.10;;;15.40;99.90;;;;;;5052207;28;20478;-78
2021/10/07 11:29:59;;;;;;;2.60;2.10;;;15.40;99.90;;;;;;5050696;28;20935;-78
2021/10/07 11:32:26;;;;;;;2.03;1.93;;;15.40;99.90;;;;;;5052177;28;20534;-78
2021/10/07 11:35:03;;;;;;;5.90;2.77;;;15.30;99.90;;;;;;5052021;28;20518;-78
2021/10/07 11:37:55;;;;;;;2.40;2.20;;;15.50;99.90;;;;;;5052028;28;20506;-78
2021/10/07 11:40:27;;;;;;;3.37;1.80;;;15.40;99.90;;;;;;5037496;28;20442;-79
2021/10/07 11:42:55;;;;;;;6.10;1.93;;;15.50;99.90;;;;;;5012247;28;20446;-80
2021/10/07 11:45:41;;;;;;;1.93;1.83;;;15.60;99.90;;;;;;5012367;28;20473;-79
2021/10/07 11:48:08;;;;;;;2.40;1.67;;;15.60;99.90;;;;;;5012273;28;20442;-79
2021/10/07 11:50:39;;;;;;;1.77;1.67;;;15.70;99.90;;;;;;5012551;28;20478;-80
2021/10/07 11:53:08;;;;;;;1.60;1.50;;;15.70;99.90;;;;;;5012235;28;20442;-80
2021/10/07 11:55:35;;;;;;;3.20;1.70;;;15.80;99.90;;;;;;5012152;28;20451;-80
2021/10/07 11:58:02;;;;;;;2.83;2.23;;;15.80;99.90;;;;;;5012578;28;20447;-79
2021/10/07 12:00:44;;;;;;;2.63;1.80;;;15.80;99.90;;;;;;5012772;28;20450;-79
2021/10/07 12:03:16;;;;;;;4.43;2.00;;;15.80;99.90;;;;;;5012315;28;20511;-78
2021/10/07 12:05:46;;;;;;;3.00;1.60;;;15.80;99.90;;;;;;5014056;28;20508;-79
2021/10/07 12:08:16;;;;;;;2.00;1.80;;;15.80;99.90;;;;;;5016238;28;20442;-79
2021/10/07 12:10:45;;;;;;;5.97;2.47;;;16.10;99.90;;;;;;5016505;28;20455;-79
2021/10/07 12:13:16;;;;;;;4.47;1.93;;;16.10;99.90;;;;;;5016193;28;20481;-79
2021/10/07 12:15:49;;;;;;;2.27;1.70;;;16.00;99.90;;;;;;5016340;28;20472;-79
2021/10/07 12:18:20;;;;;;;6.63;1.77;;;16.00;99.90;;;;;;5015490;28;20458;-82
2021/10/07 12:21:03;;;;;;;2.07;1.60;;;15.90;99.90;;;;;;5015960;28;20458;-79
2021/10/07 12:23:31;;;;;;;3.10;1.40;;;15.80;99.90;;;;;;5016106;28;20454;-79
2021/10/07 12:26:02;;;;;;;5.30;4.63;;;15.80;99.90;;;;;;5016086;28;20446;-79
2021/10/07 12:28:31;;;;;;;5.23;4.67;;;15.80;99.90;;;;;;5015991;28;20478;-78
2021/10/07 12:31:03;;;;;;;2.80;1.90;;;15.70;99.90;;;;;;5015644;28;20541;-79
2021/10/07 12:33:31;;;;;;;3.83;2.00;;;15.70;99.90;;;;;;5015697;28;20569;-79
2021/10/07 12:36:05;;;;;;;1.60;1.50;;;15.80;99.90;;;;;;5015837;28;20871;-78
2021/10/07 12:38:47;;;;;;;2.47;1.60;;;15.80;99.90;;;;;;5015834;28;20474;-78
2021/10/07 12:41:14;;;;;;;3.00;1.70;;;15.90;99.90;;;;;;5028046;28;20554;-78
2021/10/07 12:43:52;;;;;;;2.00;1.70;;;16.00;99.90;;;;;;5055153;28;20551;-78
2021/10/07 12:46:20;;;;;;;3.30;1.50;;;16.20;99.90;;;;;;5055240;28;20509;-79
2021/10/07 12:48:56;;;;;;;3.90;1.60;;;16.10;99.90;;;;;;5054395;28;20452;-80
2021/10/07 12:51:26;;;;;;;2.40;1.83;;;16.10;99.90;;;;;;5054727;28;20479;-80